Time;durP1;ratioP1;P1;durP2;ratioP2;P2;SDS_P1;SDS_P2;PMS_P1;PMS_P2;Temp;Humidity;BMP_temperature;BMP_pressure;BME280_temperature;BME280_humidity;BME280_pressure;Samples;Min_cycle;Max_cycle;Signal;HPM_P1;HPM_P2
2022/05/13 00:01:33;;;;;;;5.78;1.65;;;;;;;21.84;38.59;101862.13;5023367;28;20033;-70
2022/05/13 00:03:58;;;;;;;7.65;1.52;;;;;;;20.77;40.31;101857.38;5026557;28;20037;-69
2022/05/13 00:06:24;;;;;;;7.55;1.60;;;;;;;21.98;38.20;101860.66;5017439;28;20028;-69
2022/05/13 00:08:49;;;;;;;7.75;1.50;;;;;;;21.94;38.16;101853.75;5026902;28;20040;-69
2022/05/13 00:11:15;;;;;;;9.18;1.67;;;;;;;21.34;39.50;101857.00;5024157;28;20046;-69
2022/05/13 00:13:40;;;;;;;8.05;1.27;;;;;;;20.71;41.39;101857.59;5008946;28;20537;-69
2022/05/13 00:16:06;;;;;;;7.93;1.50;;;;;;;21.11;40.10;101861.41;5019716;28;20462;-69
2022/05/13 00:18:32;;;;;;;6.93;1.65;;;;;;;21.41;40.25;101847.84;5007256;28;20088;-70
2022/05/13 00:20:58;;;;;;;10.95;2.00;;;;;;;21.99;38.92;101852.63;5024660;28;20068;-70
2022/05/13 00:23:25;;;;;;;7.85;1.55;;;;;;;20.97;40.70;101859.28;5028673;28;20108;-69
2022/05/13 00:25:50;;;;;;;9.52;1.55;;;;;;;21.62;39.87;101850.63;5028060;28;20025;-69
2022/05/13 00:28:16;;;;;;;11.48;2.28;;;;;;;22.39;38.12;101852.75;5027578;28;20095;-69
2022/05/13 00:30:45;;;;;;;8.52;1.77;;;;;;;22.44;38.22;101850.75;5026616;28;20033;-69
2022/05/13 00:33:11;;;;;;;10.27;3.25;;;;;;;21.65;39.88;101846.06;5026432;28;20041;-69
2022/05/13 00:35:37;;;;;;;9.85;2.45;;;;;;;22.13;39.18;101852.06;5027021;28;20086;-69
2022/05/13 00:38:03;;;;;;;7.82;1.58;;;;;;;22.23;39.18;101848.97;5024375;28;20159;-69
2022/05/13 00:40:28;;;;;;;12.70;2.08;;;;;;;22.46;38.64;101856.88;5021329;28;20485;-69
2022/05/13 00:43:00;;;;;;;9.80;1.55;;;;;;;21.90;39.80;101849.47;5021341;28;20424;-69
2022/05/13 00:45:25;;;;;;;7.57;2.47;;;;;;;21.59;40.69;101851.59;5031437;28;20044;-69
2022/05/13 00:47:51;;;;;;;10.27;1.88;;;;;;;22.12;39.93;101845.00;5015584;28;20494;-69
2022/05/13 00:50:16;;;;;;;10.90;2.20;;;;;;;21.26;42.02;101843.16;5023178;28;20385;-69
2022/05/13 00:52:46;;;;;;;16.30;2.70;;;;;;;21.25;42.25;101841.41;5030251;28;20140;-69
2022/05/13 00:55:18;;;;;;;11.35;1.90;;;;;;;21.14;42.81;101837.38;5031684;28;20562;-69
2022/05/13 00:57:45;;;;;;;14.65;3.20;;;;;;;21.57;42.38;101829.53;5016208;28;20030;-70
2022/05/13 01:00:14;;;;;;;12.10;2.28;;;;;;;20.60;44.89;101841.16;5024903;28;20386;-69
2022/05/13 01:02:43;;;;;;;11.02;2.00;;;;;;;21.02;44.40;101840.53;5028878;28;20033;-69
2022/05/13 01:05:10;;;;;;;12.88;2.10;;;;;;;20.76;45.97;101839.69;5032616;28;20032;-69
2022/05/13 01:07:36;;;;;;;14.20;2.83;;;;;;;19.84;47.99;101838.44;5018263;28;20100;-69
2022/05/13 01:10:05;;;;;;;15.02;2.40;;;;;;;21.18;44.80;101835.47;5026912;28;20121;-69
2022/05/13 01:12:38;;;;;;;16.63;3.15;;;;;;;21.31;44.61;101833.22;5015360;28;20583;-69
2022/05/13 01:15:16;;;;;;;;;;;;;;;21.12;45.08;101831.25;5014506;28;20033;-69
2022/05/13 01:20:29;;;;;;;16.08;2.40;;;;;;;20.96;45.47;101836.28;5022711;28;20064;-69
2022/05/13 01:23:01;;;;;;;16.48;2.33;;;;;;;20.64;46.41;101835.66;5029367;28;20025;-69
2022/05/13 01:25:33;;;;;;;13.65;2.58;;;;;;;20.78;46.19;101837.84;5033123;28;20029;-69
2022/05/13 01:28:07;;;;;;;18.27;2.80;;;;;;;21.75;44.07;101830.56;5029838;28;20045;-69
2022/05/13 01:30:32;;;;;;;9.88;2.67;;;;;;;21.27;44.43;101836.91;5026372;28;20057;-68
2022/05/13 01:32:58;;;;;;;7.53;2.50;;;;;;;20.88;45.40;101832.19;5026302;28;20081;-69
2022/05/13 01:35:23;;;;;;;15.75;2.83;;;;;;;21.24;44.66;101829.91;5012857;28;20061;-69
2022/05/13 01:37:50;;;;;;;8.30;1.90;;;;;;;22.10;42.52;101836.19;5016433;28;20367;-69
2022/05/13 01:40:16;;;;;;;15.70;1.98;;;;;;;20.59;45.46;101842.06;5020747;28;20429;-69
2022/05/13 01:42:42;;;;;;;16.63;2.67;;;;;;;21.24;44.26;101829.03;5015676;28;20049;-69
2022/05/13 01:45:09;;;;;;;11.88;2.15;;;;;;;21.94;42.96;101840.44;5032077;28;20382;-69
2022/05/13 01:47:35;;;;;;;12.88;2.60;;;;;;;21.61;43.71;101827.59;5020962;28;20037;-69
2022/05/13 01:50:01;;;;;;;13.02;2.25;;;;;;;21.23;44.30;101833.50;5014622;28;20477;-68
2022/05/13 01:52:27;;;;;;;9.32;1.92;;;;;;;21.47;43.89;101834.34;5023958;28;20366;-69
2022/05/13 01:54:52;;;;;;;11.63;2.38;;;;;;;22.00;42.55;101835.72;5028672;28;20442;-69
2022/05/13 01:57:18;;;;;;;14.15;2.65;;;;;;;20.57;45.91;101835.97;5027703;28;20025;-68
2022/05/13 01:59:44;;;;;;;15.90;2.22;;;;;;;21.28;44.32;101825.31;5030159;28;20095;-69
2022/05/13 02:02:09;;;;;;;10.50;1.88;;;;;;;20.46;46.04;101831.03;5020995;28;20121;-68
2022/05/13 02:04:34;;;;;;;8.57;1.95;;;;;;;21.42;43.75;101833.63;5012506;28;20115;-68
2022/05/13 02:07:00;;;;;;;7.15;2.00;;;;;;;20.27;46.30;101825.50;5025219;28;20104;-69
2022/05/13 02:09:25;;;;;;;12.68;2.28;;;;;;;20.72;44.89;101824.78;5018990;28;20075;-68
2022/05/13 02:11:51;;;;;;;16.75;2.25;;;;;;;20.92;44.04;101831.16;5029085;28;20075;-68
2022/05/13 02:14:18;;;;;;;10.25;2.50;;;;;;;21.40;43.15;101824.84;5030869;28;20458;-68
2022/05/13 02:16:43;;;;;;;13.93;2.65;;;;;;;20.36;44.57;101817.22;5027074;28;20379;-69
2022/05/13 02:19:08;;;;;;;9.40;1.90;;;;;;;20.58;43.87;101825.28;5028595;28;20107;-69
2022/05/13 02:21:35;;;;;;;16.92;2.00;;;;;;;21.48;42.08;101825.41;5013104;28;20034;-69
2022/05/13 02:24:00;;;;;;;8.00;1.92;;;;;;;21.92;40.95;101829.00;5024562;28;20044;-69
2022/05/13 02:26:26;;;;;;;11.65;1.88;;;;;;;20.77;42.77;101833.47;5030898;28;20037;-69
2022/05/13 02:28:51;;;;;;;13.27;2.90;;;;;;;21.30;41.68;101834.13;5027590;28;20029;-69
2022/05/13 02:31:16;;;;;;;8.30;2.38;;;;;;;20.48;43.59;101835.38;5029388;28;20037;-70
2022/05/13 02:33:42;;;;;;;8.55;1.55;;;;;;;20.79;42.50;101834.25;5028152;28;20071;-68
2022/05/13 02:36:09;;;;;;;11.88;1.80;;;;;;;21.15;41.70;101828.47;5030320;28;20107;-69
2022/05/13 02:38:35;;;;;;;7.85;1.90;;;;;;;20.97;42.09;101834.50;5013439;28;20029;-69
2022/05/13 02:41:13;;;;;;;12.73;1.70;;;;;;;21.49;40.63;101818.31;5028355;28;20090;-69
2022/05/13 02:43:48;;;;;;;6.22;1.63;;;;;;;19.84;43.00;101809.25;5027351;28;20100;-68
2022/05/13 02:46:23;;;;;;;8.10;2.00;;;;;;;21.72;39.84;101804.09;5028763;28;20455;-69
2022/05/13 02:48:50;;;;;;;16.02;2.20;;;;;;;20.35;42.29;101807.50;5013764;28;20072;-69
2022/05/13 02:51:16;;;;;;;14.45;2.28;;;;;;;20.65;41.42;101802.03;5029834;28;20029;-69
2022/05/13 02:53:42;;;;;;;10.57;2.20;;;;;;;21.13;40.64;101803.75;5021243;28;20060;-69
2022/05/13 02:56:08;;;;;;;6.00;1.80;;;;;;;21.31;40.20;101801.31;5019612;28;20057;-69
2022/05/13 02:58:37;;;;;;;8.70;1.80;;;;;;;21.02;40.20;101803.31;5011208;28;20108;-69
2022/05/13 03:01:05;;;;;;;6.80;2.00;;;;;;;21.08;40.10;101800.41;5014283;28;20034;-69
2022/05/13 03:03:30;;;;;;;9.93;1.80;;;;;;;20.29;42.23;101805.06;5020178;28;20088;-69
2022/05/13 03:05:57;;;;;;;7.57;2.25;;;;;;;20.41;41.27;101807.28;5027753;28;20051;-69
2022/05/13 03:08:22;;;;;;;9.70;1.95;;;;;;;20.49;40.90;101805.22;5028106;28;20116;-69
2022/05/13 03:10:47;;;;;;;9.10;1.65;;;;;;;20.87;40.56;101793.25;5024777;28;20168;-69
2022/05/13 03:13:18;;;;;;;6.78;1.60;;;;;;;21.75;38.80;101801.31;5015878;28;20078;-69
2022/05/13 03:15:44;;;;;;;10.02;1.45;;;;;;;20.97;40.22;101805.28;5024243;28;20030;-68
2022/05/13 03:18:09;;;;;;;6.07;1.58;;;;;;;21.15;39.74;101798.38;5010493;28;20096;-68
2022/05/13 03:20:34;;;;;;;9.63;2.20;;;;;;;21.18;39.90;101792.94;5022161;28;20030;-68
2022/05/13 03:23:00;;;;;;;6.53;2.17;;;;;;;20.94;40.36;101798.28;5012674;28;20025;-69
2022/05/13 03:25:25;;;;;;;4.93;1.80;;;;;;;21.21;39.99;101802.56;5029051;28;20045;-69
2022/05/13 03:27:50;;;;;;;4.97;1.30;;;;;;;20.31;42.22;101797.94;5027408;28;20029;-68
2022/05/13 03:30:18;;;;;;;11.00;1.88;;;;;;;20.80;40.96;101809.44;5012260;28;20080;-71
2022/05/13 03:32:43;;;;;;;12.35;2.05;;;;;;;21.89;38.71;101802.53;5018093;28;20029;-68
2022/05/13 03:35:11;;;;;;;9.02;1.80;;;;;;;20.72;41.08;101811.50;5016450;28;20029;-68
2022/05/13 03:37:36;;;;;;;9.02;2.00;;;;;;;21.45;39.65;101800.75;5008696;28;20041;-69
2022/05/13 03:40:03;;;;;;;13.45;2.30;;;;;;;21.24;39.81;101808.66;5018682;28;20034;-68
2022/05/13 03:42:32;;;;;;;10.52;1.50;;;;;;;21.97;38.30;101816.38;5022609;28;20481;-68
2022/05/13 03:44:57;;;;;;;7.18;2.03;;;;;;;20.67;40.93;101824.06;5012240;28;20115;-68
2022/05/13 03:47:23;;;;;;;6.20;2.13;;;;;;;20.44;41.79;101833.75;5011955;28;20473;-71
2022/05/13 03:49:49;;;;;;;5.35;1.80;;;;;;;20.42;42.12;101830.25;5016668;28;20100;-71
2022/05/13 03:52:15;;;;;;;9.85;1.30;;;;;;;20.39;41.95;101825.06;5023474;28;20032;-69
2022/05/13 03:54:40;;;;;;;8.02;1.88;;;;;;;19.85;43.45;101834.00;5025080;28;20424;-69
2022/05/13 03:57:07;;;;;;;7.97;1.55;;;;;;;20.42;42.19;101829.41;5028780;28;20034;-69
2022/05/13 03:59:33;;;;;;;9.82;1.92;;;;;;;21.52;40.14;101824.38;5007805;28;20102;-69
2022/05/13 04:01:59;;;;;;;9.20;1.95;;;;;;;20.80;41.46;101836.00;5016728;28;20056;-69
2022/05/13 04:04:27;;;;;;;7.72;1.88;;;;;;;20.42;42.21;101846.19;5023768;28;20481;-69
2022/05/13 04:09:36;;;;;;;8.82;1.60;;;;;;;20.65;41.73;101831.22;5029412;28;20095;-69
2022/05/13 04:17:30;;;;;;;11.00;1.90;;;;;;;21.16;41.13;101827.56;5028162;28;20098;-69
2022/05/13 04:19:55;;;;;;;6.30;2.05;;;;;;;21.71;39.77;101828.97;5028783;28;20108;-69
2022/05/13 04:22:24;;;;;;;7.35;1.80;;;;;;;21.44;40.35;101826.44;5024523;28;20028;-69
2022/05/13 04:24:52;;;;;;;11.50;1.85;;;;;;;21.44;40.17;101831.78;5026900;28;20034;-69
2022/05/13 04:27:17;;;;;;;4.75;1.40;;;;;;;21.14;40.51;101832.06;5027081;28;20052;-71
2022/05/13 04:29:43;;;;;;;8.35;1.50;;;;;;;21.22;41.05;101830.91;5011184;28;20485;-71
2022/05/13 04:32:08;;;;;;;6.65;1.85;;;;;;;21.45;40.55;101833.50;5025548;28;20127;-70
2022/05/13 04:34:34;;;;;;;4.05;1.63;;;;;;;20.74;42.65;101830.91;5024553;28;20124;-71
2022/05/13 04:36:59;;;;;;;8.55;1.95;;;;;;;21.17;41.77;101828.41;5026130;28;20022;-72
2022/05/13 04:39:24;;;;;;;9.50;2.00;;;;;;;20.50;42.89;101837.97;5025722;28;20036;-71
2022/05/13 04:44:34;;;;;;;7.68;1.98;;;;;;;22.43;39.57;101849.00;5028211;28;20099;-71
2022/05/13 04:46:59;;;;;;;13.13;2.05;;;;;;;22.19;40.12;101854.44;5026312;28;20026;-71
2022/05/13 04:49:24;;;;;;;4.32;1.45;;;;;;;21.72;40.92;101852.00;5022898;28;20500;-71
2022/05/13 04:51:50;;;;;;;15.55;2.45;;;;;;;20.67;43.36;101861.25;5023340;28;20163;-71
2022/05/13 04:54:15;;;;;;;10.43;1.83;;;;;;;21.76;41.28;101863.34;5025627;28;20501;-72
2022/05/13 04:56:40;;;;;;;10.13;1.90;;;;;;;22.18;40.96;101860.69;5026063;28;20042;-71
2022/05/13 04:59:06;;;;;;;9.38;2.10;;;;;;;21.42;41.76;101872.66;5026845;28;20512;-71
2022/05/13 05:01:31;;;;;;;9.88;2.08;;;;;;;21.49;42.21;101883.00;5028451;28;20075;-71
2022/05/13 05:03:57;;;;;;;14.13;1.95;;;;;;;22.12;40.85;101874.28;5021026;28;20109;-71
2022/05/13 05:06:23;;;;;;;12.68;2.63;;;;;;;21.17;42.84;101886.88;5029380;28;20492;-69
2022/05/13 05:08:50;;;;;;;5.20;1.40;;;;;;;20.75;43.58;101880.47;5025773;28;20072;-68
2022/05/13 05:11:17;;;;;;;8.30;2.28;;;;;;;20.62;44.13;101884.44;5011774;28;20026;-69
2022/05/13 05:13:52;;;;;;;8.80;1.90;;;;;;;20.70;43.47;101887.72;5026144;28;20021;-68
2022/05/13 05:16:22;;;;;;;11.50;1.63;;;;;;;20.38;44.53;101881.72;5025023;28;20029;-69
2022/05/13 05:18:47;;;;;;;7.78;1.83;;;;;;;20.95;43.29;101887.72;5025814;28;20152;-68
2022/05/13 05:21:12;;;;;;;7.75;1.85;;;;;;;21.88;40.93;101884.13;5028604;28;20483;-69
2022/05/13 05:23:40;;;;;;;5.78;1.77;;;;;;;21.74;41.35;101891.84;5027567;28;20112;-69
2022/05/13 05:26:07;;;;;;;9.38;1.67;;;;;;;22.15;40.80;101887.44;5024970;28;20446;-69
2022/05/13 05:28:32;;;;;;;6.03;1.30;;;;;;;21.12;42.40;101900.38;5025261;28;20108;-69
2022/05/13 05:31:02;;;;;;;8.13;1.38;;;;;;;21.83;41.03;101897.66;5018890;28;20532;-69
2022/05/13 05:33:28;;;;;;;5.95;1.10;;;;;;;22.32;39.55;101897.38;5032579;28;20492;-69
2022/05/13 05:35:53;;;;;;;4.60;1.42;;;;;;;20.73;42.92;101905.34;5026189;28;20171;-68
2022/05/13 05:38:18;;;;;;;6.72;1.35;;;;;;;21.41;41.67;101909.03;5032397;28;20022;-69
2022/05/13 05:40:44;;;;;;;5.88;1.25;;;;;;;20.68;42.71;101911.69;5027637;28;20030;-69
2022/05/13 05:43:13;;;;;;;5.22;1.13;;;;;;;21.63;41.55;101910.88;5030629;28;20496;-69
2022/05/13 05:45:42;;;;;;;5.90;1.05;;;;;;;21.70;40.54;101907.03;5044530;28;20104;-69
2022/05/13 05:48:10;;;;;;;5.10;1.10;;;;;;;21.45;41.52;101915.09;5030700;28;20083;-70
2022/05/13 05:50:35;;;;;;;6.82;1.25;;;;;;;21.93;39.94;101921.22;5029705;28;20029;-70
2022/05/13 05:53:04;;;;;;;5.45;1.33;;;;;;;21.89;40.27;101917.81;5031748;28;20481;-69
2022/05/13 05:58:16;;;;;;;6.85;1.20;;;;;;;21.21;41.18;101930.19;5023993;28;20172;-69
2022/05/13 06:00:45;;;;;;;4.50;1.20;;;;;;;22.12;40.01;101923.97;5030296;28;20021;-68
2022/05/13 06:03:11;;;;;;;4.45;1.27;;;;;;;21.75;40.37;101937.00;5030502;28;20037;-68
2022/05/13 06:05:37;;;;;;;5.78;1.55;;;;;;;21.71;40.91;101934.50;5026639;28;20393;-69
2022/05/13 06:08:05;;;;;;;7.45;1.20;;;;;;;21.66;40.82;101932.88;5029826;28;20029;-69
2022/05/13 06:10:32;;;;;;;5.43;1.10;;;;;;;21.64;39.86;101939.22;5009402;28;20394;-68
2022/05/13 06:12:58;;;;;;;3.45;0.80;;;;;;;22.28;38.41;101932.19;5010619;28;20156;-68
2022/05/13 06:15:23;;;;;;;3.15;0.88;;;;;;;22.44;38.21;101937.78;5016236;28;20381;-69
2022/05/13 06:17:52;;;;;;;4.85;1.10;;;;;;;21.74;39.06;101945.91;5027576;28;20491;-68
2022/05/13 06:20:20;;;;;;;5.68;1.17;;;;;;;21.72;38.69;101952.22;5030509;28;20436;-69
2022/05/13 06:22:46;;;;;;;6.85;2.15;;;;;;;21.29;40.36;101954.69;5030541;28;20105;-68
2022/05/13 06:25:14;;;;;;;4.53;0.80;;;;;;;21.26;39.95;101957.47;5029036;28;20025;-68
2022/05/13 06:27:40;;;;;;;7.07;1.38;;;;;;;22.55;37.95;101950.66;5024454;28;20469;-68
2022/05/13 06:30:11;;;;;;;8.05;1.25;;;;;;;21.65;38.85;101946.25;5011589;28;20112;-68
2022/05/13 06:32:38;;;;;;;2.78;0.85;;;;;;;20.83;39.91;101947.47;4964231;28;20025;-68
2022/05/13 06:35:04;;;;;;;5.65;1.02;;;;;;;21.52;38.48;101941.41;5027853;28;20179;-69
2022/05/13 06:37:30;;;;;;;8.70;0.90;;;;;;;22.67;37.01;101948.31;5027984;28;20056;-69
2022/05/13 06:39:55;;;;;;;4.90;1.05;;;;;;;21.73;37.51;101949.47;5022557;28;20451;-69
2022/05/13 06:42:21;;;;;;;5.15;0.77;;;;;;;24.82;33.10;101942.63;5026606;28;20040;-70
2022/05/13 06:44:46;;;;;;;5.50;0.90;;;;;;;25.20;32.25;101940.56;5027786;28;20088;-68
2022/05/13 06:47:12;;;;;;;5.72;0.90;;;;;;;25.39;31.47;101948.47;5027858;28;20029;-70
2022/05/13 06:49:37;;;;;;;3.60;0.80;;;;;;;27.17;28.44;101948.81;5028186;28;20028;-69
2022/05/13 06:52:03;;;;;;;2.55;0.73;;;;;;;25.43;30.40;101953.66;5026424;28;20017;-69
2022/05/13 06:54:30;;;;;;;4.60;0.82;;;;;;;23.79;33.11;101970.81;5027956;28;20025;-70
2022/05/13 06:56:55;;;;;;;3.60;0.68;;;;;;;25.26;31.58;101962.59;5010469;28;20030;-69
2022/05/13 06:59:21;;;;;;;3.28;0.98;;;;;;;26.58;29.82;101957.75;5028343;28;20026;-69
2022/05/13 07:01:47;;;;;;;4.25;1.42;;;;;;;27.41;28.37;101961.69;5024816;28;20021;-69
2022/05/13 07:04:12;;;;;;;4.43;1.25;;;;;;;27.34;27.65;101965.66;5022679;28;20072;-68
2022/05/13 07:06:39;;;;;;;3.17;1.45;;;;;;;26.13;29.62;101962.22;5026485;28;20079;-69
2022/05/13 07:09:04;;;;;;;6.32;1.02;;;;;;;24.40;32.50;101976.81;5026588;28;20032;-68
2022/05/13 07:11:30;;;;;;;6.47;1.00;;;;;;;25.53;30.88;101974.47;5027111;28;20440;-68
2022/05/13 07:13:55;;;;;;;4.82;1.10;;;;;;;23.69;33.39;101988.22;5025323;28;20132;-68
2022/05/13 07:16:20;;;;;;;3.92;1.00;;;;;;;25.82;30.01;101985.34;5025001;28;20489;-68
2022/05/13 07:18:47;;;;;;;4.55;1.23;;;;;;;26.89;27.98;101981.88;5028664;28;20552;-68
2022/05/13 07:21:13;;;;;;;3.65;0.93;;;;;;;26.99;27.99;101988.38;5027904;28;20018;-68
2022/05/13 07:23:38;;;;;;;6.25;0.93;;;;;;;24.65;30.97;101986.28;5026167;28;20128;-68
2022/05/13 07:26:04;;;;;;;4.43;1.58;;;;;;;24.96;31.61;101984.66;5024850;28;20108;-68
2022/05/13 07:28:29;;;;;;;2.38;0.70;;;;;;;24.63;31.72;101994.34;5011743;28;20033;-68
2022/05/13 07:30:55;;;;;;;7.32;0.93;;;;;;;24.64;31.72;101989.88;5007842;28;20022;-68
2022/05/13 07:33:22;;;;;;;6.68;0.80;;;;;;;24.90;31.97;101996.56;5021064;28;20095;-68
2022/05/13 07:35:47;;;;;;;3.92;0.93;;;;;;;25.11;31.09;102004.38;5024845;28;20021;-67
2022/05/13 07:38:13;;;;;;;3.65;0.82;;;;;;;25.79;30.91;101996.25;5011152;28;20032;-68
2022/05/13 07:43:22;;;;;;;6.38;1.05;;;;;;;25.50;31.63;102001.41;5026044;28;20128;-68
2022/05/13 07:45:48;;;;;;;3.08;1.05;;;;;;;24.44;33.30;102012.22;5029401;28;20056;-70
2022/05/13 07:48:13;;;;;;;7.47;1.05;;;;;;;24.78;32.49;102008.75;5028163;28;20025;-70
2022/05/13 07:50:39;;;;;;;6.50;1.00;;;;;;;24.66;32.84;102009.38;5027523;28;20091;-68
2022/05/13 07:53:05;;;;;;;5.55;1.10;;;;;;;23.16;34.86;102017.31;5022594;28;20041;-68
2022/05/13 07:55:31;;;;;;;4.18;1.10;;;;;;;24.38;33.65;102010.75;5017343;28;20072;-68
2022/05/13 07:57:57;;;;;;;5.20;1.58;;;;;;;24.76;32.32;102023.13;5024262;28;20052;-68
2022/05/13 08:00:24;;;;;;;5.88;1.00;;;;;;;23.11;35.44;102026.38;5009577;28;20470;-68
2022/05/13 08:02:50;;;;;;;2.13;0.90;;;;;;;23.26;35.64;102030.19;5015936;28;20025;-68
2022/05/13 08:05:15;;;;;;;5.90;1.40;;;;;;;25.34;33.06;102011.22;5027513;28;20033;-68
2022/05/13 08:07:41;;;;;;;5.30;1.27;;;;;;;24.43;34.03;102024.75;5027641;28;20485;-68
2022/05/13 08:10:07;;;;;;;4.97;0.85;;;;;;;23.74;33.97;102031.59;5027785;28;20533;-68
2022/05/13 08:12:32;;;;;;;3.50;1.15;;;;;;;24.02;33.22;102038.31;5026836;28;20025;-68
2022/05/13 08:14:58;;;;;;;6.47;1.20;;;;;;;24.71;32.04;102039.41;5016650;28;20452;-68
2022/05/13 08:17:23;;;;;;;4.10;1.42;;;;;;;24.43;32.16;102030.09;5010688;28;20080;-68
2022/05/13 08:19:51;;;;;;;3.50;1.10;;;;;;;25.70;30.27;102013.66;5024705;28;20273;-68
2022/05/13 08:22:17;;;;;;;2.75;0.80;;;;;;;26.21;29.23;102012.66;5025569;28;20025;-68
2022/05/13 08:24:42;;;;;;;1.10;0.60;;;;;;;27.27;29.20;102016.19;5027078;28;20527;-69
2022/05/13 08:27:08;;;;;;;6.72;1.42;;;;;;;26.18;29.52;102013.69;5027808;28;20542;-68
2022/05/13 08:29:33;;;;;;;3.55;0.90;;;;;;;26.15;29.66;102024.59;5043757;28;20041;-69
2022/05/13 08:31:58;;;;;;;3.78;0.60;;;;;;;27.50;27.66;102020.13;5023338;28;20397;-68
2022/05/13 08:34:24;;;;;;;2.30;0.88;;;;;;;28.27;27.17;102020.59;5029537;28;20476;-68
2022/05/13 08:36:50;;;;;;;3.85;1.15;;;;;;;27.00;27.88;102026.81;5026697;28;20022;-68
2022/05/13 08:39:16;;;;;;;3.85;1.77;;;;;;;29.88;25.51;102025.63;5038362;28;20527;-68
2022/05/13 08:42:06;;;;;;;2.67;1.10;;;;;;;29.14;25.86;102030.88;5043878;28;20103;-69
2022/05/13 08:44:32;;;;;;;3.85;0.90;;;;;;;27.51;28.19;102037.97;5025808;28;20053;-69
2022/05/13 08:47:13;;;;;;;4.53;1.08;;;;;;;27.18;29.25;102040.94;5028434;28;20037;-69
2022/05/13 08:49:59;;;;;;;4.30;0.80;;;;;;;27.99;27.69;102036.78;5026080;28;20030;-69
2022/05/13 08:55:34;;;;;;;7.38;1.13;;;;;;;29.35;26.13;102041.13;5009963;28;20096;-68
2022/05/13 08:58:02;;;;;;;7.68;1.73;;;;;;;28.10;27.43;102055.78;5033289;28;20029;-68
2022/05/13 09:00:42;;;;;;;5.13;1.17;;;;;;;29.72;26.28;102047.41;5027267;28;20120;-69
2022/05/13 09:03:26;;;;;;;7.65;0.98;;;;;;;31.00;24.49;102044.22;5027606;28;20022;-69
2022/05/13 09:06:03;;;;;;;9.25;1.20;;;;;;;28.17;27.17;102056.22;5027067;28;20030;-69
2022/05/13 09:08:29;;;;;;;9.13;2.67;;;;;;;28.12;27.74;102059.19;5030686;28;20038;-69
2022/05/13 09:11:31;;;;;;;5.10;1.05;;;;;;;26.72;29.72;102072.25;5028673;28;20138;-69
2022/05/13 09:14:09;;;;;;;5.78;0.90;;;;;;;26.07;30.46;102073.25;5019129;28;20041;-69
2022/05/13 09:16:59;;;;;;;7.43;1.00;;;;;;;24.20;33.45;102081.97;5027751;28;20105;-70
2022/05/13 09:19:30;;;;;;;5.18;1.10;;;;;;;23.83;33.98;102081.84;5028000;28;20065;-69
2022/05/13 09:21:56;;;;;;;6.93;1.02;;;;;;;26.22;30.77;102079.53;5028482;28;20056;-69
2022/05/13 09:24:21;;;;;;;3.90;0.88;;;;;;;25.74;31.28;102075.94;5030977;28;20497;-69
2022/05/13 09:26:46;;;;;;;1.65;0.98;;;;;;;26.06;30.78;102084.03;5028483;28;20036;-70
2022/05/13 09:29:20;;;;;;;2.65;0.93;;;;;;;25.18;31.36;102076.22;5031370;28;20029;-69
2022/05/13 09:32:07;;;;;;;4.95;1.40;;;;;;;24.65;33.25;102094.03;5026949;28;20021;-69
2022/05/13 09:35:00;;;;;;;4.07;1.13;;;;;;;26.68;29.95;102088.56;5031208;28;20033;-69
2022/05/13 09:37:34;;;;;;;3.22;1.23;;;;;;;24.60;32.42;102089.84;5046176;28;20055;-69
2022/05/13 09:40:18;;;;;;;4.93;1.15;;;;;;;27.31;29.46;102082.13;5027520;28;20029;-69
2022/05/13 09:42:48;;;;;;;4.95;1.10;;;;;;;28.18;27.49;102080.31;5026028;28;20034;-70
2022/05/13 09:45:20;;;;;;;5.07;1.00;;;;;;;28.25;27.49;102076.25;5027771;28;20038;-70
2022/05/13 09:47:58;;;;;;;6.32;0.90;;;;;;;28.15;27.40;102077.84;5030109;28;20086;-71
2022/05/13 09:50:31;;;;;;;4.28;0.90;;;;;;;28.73;26.56;102074.94;5035650;28;20037;-69
2022/05/13 09:53:09;;;;;;;3.72;1.08;;;;;;;26.84;28.81;102078.69;5022630;28;20482;-69
2022/05/13 09:55:43;;;;;;;5.07;1.88;;;;;;;27.63;27.12;102078.44;5011189;28;20095;-70
2022/05/13 09:58:17;;;;;;;2.70;0.77;;;;;;;28.41;26.36;102091.38;5027706;28;20444;-69
2022/05/13 10:00:43;;;;;;;5.03;0.80;;;;;;;28.50;26.58;102085.38;5026634;28;20481;-69
2022/05/13 10:03:18;;;;;;;6.28;0.95;;;;;;;28.74;25.90;102076.66;5024784;28;20025;-69
2022/05/13 10:05:44;;;;;;;3.75;0.82;;;;;;;30.63;24.19;102083.84;5027302;28;20476;-69
2022/05/13 10:08:17;;;;;;;4.22;0.85;;;;;;;28.49;25.29;102093.56;5030847;28;20041;-69
2022/05/13 10:13:59;;;;;;;5.63;1.20;;;;;;;27.58;27.66;102093.00;5019053;28;20103;-69
2022/05/13 10:16:34;;;;;;;3.63;1.38;;;;;;;26.53;29.16;102091.19;5023849;28;20444;-70
2022/05/13 10:19:00;;;;;;;1.80;0.68;;;;;;;26.82;28.85;102083.31;5029157;28;20123;-69
2022/05/13 10:21:31;;;;;;;8.13;1.70;;;;;;;27.77;27.28;102086.50;5027345;28;20041;-69
2022/05/13 10:24:04;;;;;;;5.63;1.38;;;;;;;26.73;29.00;102090.03;5029435;28;20033;-70
2022/05/13 10:26:37;;;;;;;5.18;1.10;;;;;;;27.54;27.33;102086.09;5039360;28;20029;-68
2022/05/13 10:29:19;;;;;;;2.10;0.93;;;;;;;26.79;27.63;102083.50;5015399;28;20037;-69
2022/05/13 10:31:46;;;;;;;4.03;0.85;;;;;;;26.32;29.52;102090.59;5022714;28;20116;-69
2022/05/13 10:34:34;;;;;;;6.07;0.90;;;;;;;26.71;28.61;102085.75;5028418;28;20032;-69
2022/05/13 10:37:08;;;;;;;4.30;1.00;;;;;;;28.85;26.17;102074.13;5028139;28;20072;-70
2022/05/13 10:39:38;;;;;;;6.68;0.85;;;;;;;28.35;26.18;102083.72;5028727;28;20096;-70
2022/05/13 10:42:12;;;;;;;3.47;0.90;;;;;;;29.71;24.72;102077.16;5028033;28;20040;-70
2022/05/13 10:44:55;;;;;;;3.25;0.93;;;;;;;31.72;22.46;102084.44;5025519;28;20125;-70
2022/05/13 10:47:52;;;;;;;1.85;0.70;;;;;;;29.84;24.61;102083.38;5028335;28;20037;-70
2022/05/13 10:50:25;;;;;;;5.38;1.20;;;;;;;28.59;25.94;102084.78;5026498;28;20049;-71
2022/05/13 10:53:01;;;;;;;7.70;0.90;;;;;;;30.12;24.58;102078.69;5028501;28;20508;-70
2022/05/13 10:55:44;;;;;;;6.75;1.00;;;;;;;29.51;24.77;102076.75;5027665;28;20033;-70
2022/05/13 10:58:28;;;;;;;;;;;;;;;29.73;25.54;102075.19;5019827;28;20029;-70
2022/05/13 11:01:05;;;;;;;4.43;0.65;;;;;;;28.30;26.22;102088.53;5027028;28;19947;-69
2022/05/13 11:03:54;;;;;;;1.90;0.80;;;;;;;27.82;25.76;102087.06;5029501;28;20030;-70
2022/05/13 11:06:28;;;;;;;4.25;0.60;;;;;;;28.70;25.35;102069.75;5028927;28;20037;-70
2022/05/13 11:08:59;;;;;;;2.25;0.90;;;;;;;31.20;23.93;102058.88;5028300;28;20026;-70
2022/05/13 11:11:43;;;;;;;2.17;1.05;;;;;;;31.15;23.75;102075.44;5024391;28;20054;-70
2022/05/13 11:14:08;;;;;;;7.65;0.68;;;;;;;32.34;21.24;102073.16;5028483;28;20033;-70
2022/05/13 11:17:02;;;;;;;2.88;0.80;;;;;;;31.57;21.38;102066.75;5024376;28;20702;-70
2022/05/13 11:19:55;;;;;;;3.25;0.98;;;;;;;30.10;23.34;102072.53;5027510;28;20033;-70
2022/05/13 11:22:34;;;;;;;2.60;0.90;;;;;;;30.13;24.45;102064.25;5026007;28;20033;-70
2022/05/13 11:28:02;;;;;;;7.32;1.10;;;;;;;29.29;25.79;102066.63;5021755;28;20428;-70
2022/05/13 11:31:08;;;;;;;5.45;1.30;;;;;;;28.27;26.97;102079.72;5027430;28;20486;-70
2022/05/13 11:33:59;;;;;;;4.47;1.00;;;;;;;28.57;24.81;102080.47;4981889;28;20046;-70
2022/05/13 11:36:58;;;;;;;3.00;0.82;;;;;;;27.97;25.07;102097.78;5026492;28;20397;-71
2022/05/13 11:39:40;;;;;;;3.20;0.80;;;;;;;26.17;27.58;102092.38;5027609;28;20048;-70
2022/05/13 11:45:38;;;;;;;5.25;1.05;;;;;;;26.08;27.34;102092.88;4988003;28;20089;-70
2022/05/13 11:48:26;;;;;;;3.85;0.68;;;;;;;26.24;28.23;102096.41;5023920;28;20022;-68
2022/05/13 11:51:00;;;;;;;7.32;1.05;;;;;;;27.89;26.76;102096.47;5022917;28;20040;-70
2022/05/13 11:53:41;;;;;;;4.28;0.90;;;;;;;27.57;27.04;102082.38;5011960;28;20104;-69
2022/05/13 11:56:31;;;;;;;6.70;0.95;;;;;;;27.12;27.14;102094.94;5026426;28;20037;-70
2022/05/13 11:59:01;;;;;;;6.30;1.08;;;;;;;27.33;27.38;102087.44;5028937;28;20040;-68
2022/05/13 12:01:36;;;;;;;4.57;1.15;;;;;;;26.97;27.90;102092.25;5022414;28;20412;-68
2022/05/13 12:04:13;;;;;;;3.08;0.90;;;;;;;28.48;25.67;102073.88;5022768;28;20497;-69
2022/05/13 12:06:47;;;;;;;2.13;0.90;;;;;;;28.15;25.36;102093.97;5013560;28;20076;-68